createdAt,value
2019-04-01T00:02:05.537Z,2.08
2019-04-01T00:04:35.088Z,1.72
2019-04-01T00:07:05.233Z,2.10
2019-04-01T00:09:34.792Z,2.02
2019-04-01T00:12:04.612Z,2.12
2019-04-01T00:14:34.175Z,2.55
2019-04-01T00:17:03.780Z,1.95
2019-04-01T00:19:33.359Z,2.02
2019-04-01T00:22:02.967Z,2.00
2019-04-01T00:24:32.530Z,2.37
2019-04-01T00:27:02.115Z,2.05
2019-04-01T00:29:31.978Z,2.22
2019-04-01T00:32:02.150Z,1.52
2019-04-01T00:34:31.727Z,1.72
2019-04-01T00:37:01.264Z,2.35
2019-04-01T00:39:30.848Z,3.12
2019-04-01T00:42:15.423Z,2.17
2019-04-01T00:44:45.261Z,2.30
2019-04-01T00:47:14.850Z,2.25
2019-04-01T00:49:44.409Z,1.95
2019-04-01T00:52:13.962Z,1.50
2019-04-01T00:54:43.574Z,2.10
2019-04-01T00:57:13.123Z,1.40
2019-04-01T00:59:42.977Z,2.40
2019-04-01T01:02:12.549Z,1.95
2019-04-01T01:04:42.139Z,2.00
2019-04-01T01:07:11.975Z,1.60
2019-04-01T01:09:41.536Z,1.50
2019-04-01T01:12:11.204Z,2.15
2019-04-01T01:14:41.069Z,1.67
2019-04-01T01:17:10.935Z,1.80
2019-04-01T01:19:40.510Z,1.70
2019-04-01T01:22:10.152Z,1.42
2019-04-01T01:24:39.735Z,1.60
2019-04-01T01:27:09.370Z,2.70
2019-04-01T01:29:38.920Z,2.05
2019-04-01T01:32:08.507Z,1.70
2019-04-01T01:34:38.045Z,1.85
2019-04-01T01:37:07.671Z,2.15
2019-04-01T01:39:37.509Z,1.60
2019-04-01T01:42:07.376Z,1.92
2019-04-01T01:44:37.251Z,1.85
2019-04-01T01:47:07.156Z,1.90
2019-04-01T01:49:36.751Z,1.90
2019-04-01T01:52:06.326Z,1.70
2019-04-01T01:54:35.893Z,2.98
2019-04-01T01:57:05.447Z,2.00
2019-04-01T01:59:35.005Z,1.40
2019-04-01T02:02:04.782Z,2.35
2019-04-01T02:04:34.698Z,1.98
2019-04-01T02:07:04.278Z,2.25
2019-04-01T02:09:33.852Z,2.00
2019-04-01T02:12:03.455Z,2.10
2019-04-01T02:14:33.020Z,2.40
2019-04-01T02:17:02.633Z,2.58
2019-04-01T02:19:32.446Z,1.60
2019-04-01T02:22:02.375Z,3.50
2019-04-01T02:24:32.034Z,2.12
2019-04-01T02:27:01.671Z,1.70
2019-04-01T02:29:31.267Z,1.70
2019-04-01T02:32:00.866Z,1.80
2019-04-01T02:34:30.756Z,1.47
2019-04-01T02:37:00.379Z,1.82
2019-04-01T02:39:30.287Z,1.75
2019-04-01T02:41:59.853Z,1.98
2019-04-01T02:44:29.747Z,2.12
2019-04-01T02:46:59.597Z,1.98
2019-04-01T02:49:29.159Z,1.80
2019-04-01T02:51:58.777Z,2.33
2019-04-01T02:54:28.332Z,3.12
2019-04-01T02:56:58.443Z,2.08
2019-04-01T02:59:28.279Z,1.42
2019-04-01T03:01:57.855Z,2.25
2019-04-01T03:04:27.773Z,1.80
2019-04-01T03:06:57.611Z,2.30
2019-04-01T03:09:27.247Z,1.87
2019-04-01T03:11:56.825Z,1.87
2019-04-01T03:14:26.422Z,2.08
2019-04-01T03:16:56.022Z,2.25
2019-04-01T03:19:25.563Z,2.17
2019-04-01T03:21:55.173Z,2.10
2019-04-01T03:24:24.783Z,1.52
2019-04-01T03:26:54.380Z,2.20
2019-04-01T03:29:23.970Z,2.10
2019-04-01T03:31:54.267Z,1.80
2019-04-01T03:34:23.985Z,2.33
2019-04-01T03:36:53.537Z,2.05
2019-04-01T03:39:23.123Z,2.12
2019-04-01T03:41:52.696Z,1.92
2019-04-01T03:44:22.537Z,1.47
2019-04-01T03:46:52.104Z,2.00
2019-04-01T03:49:21.666Z,2.33
2019-04-01T03:51:51.256Z,2.08
2019-04-01T03:54:20.793Z,2.30
2019-04-01T03:56:50.403Z,2.25
2019-04-01T03:59:19.953Z,1.85
2019-04-01T04:01:49.657Z,2.05
2019-04-01T04:04:19.217Z,2.20
2019-04-01T04:06:48.728Z,2.40
2019-04-01T04:09:18.286Z,2.75
2019-04-01T04:11:47.874Z,3.10
2019-04-01T04:14:17.495Z,2.08
2019-04-01T04:16:47.051Z,2.35
2019-04-01T04:19:17.408Z,2.47
2019-04-01T04:21:47.015Z,2.37
2019-04-01T04:24:16.570Z,2.33
2019-04-01T04:26:46.166Z,1.92
2019-04-01T04:29:15.816Z,1.60
2019-04-01T04:31:45.432Z,1.87
2019-04-01T04:34:15.388Z,1.72
2019-04-01T04:36:44.974Z,1.70
2019-04-01T04:39:14.891Z,2.40
2019-04-01T04:41:44.448Z,2.02
2019-04-01T04:44:14.029Z,2.30
2019-04-01T04:46:43.946Z,2.47
2019-04-01T04:49:13.487Z,2.95
2019-04-01T04:51:43.360Z,2.30
2019-04-01T04:54:12.951Z,1.67
2019-04-01T04:56:42.816Z,3.05
2019-04-01T04:59:12.450Z,2.37
2019-04-01T05:01:42.111Z,2.33
2019-04-01T05:04:11.636Z,2.60
2019-04-01T05:06:41.203Z,2.50
2019-04-01T05:09:10.768Z,2.10
2019-04-01T05:11:40.416Z,2.40
2019-04-01T05:14:10.017Z,2.10
2019-04-01T05:16:39.839Z,2.40
2019-04-01T05:19:09.737Z,2.70
2019-04-01T05:21:39.770Z,1.95
2019-04-01T05:24:09.541Z,2.17
2019-04-01T05:26:40.512Z,2.85
2019-04-01T05:29:10.226Z,2.08
2019-04-01T05:31:41.644Z,2.35
2019-04-01T05:34:13.315Z,1.90
2019-04-01T05:36:42.908Z,1.42
2019-04-01T05:39:12.517Z,2.33
2019-04-01T05:41:42.171Z,2.10
2019-04-01T05:44:12.124Z,2.08
2019-04-01T05:46:41.842Z,1.95
2019-04-01T05:49:11.490Z,2.20
2019-04-01T05:51:41.337Z,1.77
2019-04-01T05:54:10.936Z,2.42
2019-04-01T05:56:40.491Z,2.75
2019-04-01T05:59:10.155Z,3.37
2019-04-01T06:01:43.086Z,2.00
2019-04-01T06:04:12.899Z,2.40
2019-04-01T06:06:42.553Z,2.60
2019-04-01T06:09:12.178Z,2.42
2019-04-01T06:11:42.013Z,2.10
2019-04-01T06:14:11.910Z,1.98
2019-04-01T06:16:41.456Z,2.45
2019-04-01T06:19:11.132Z,1.75
2019-04-01T06:21:40.824Z,1.60
2019-04-01T06:24:10.643Z,1.90
2019-04-01T06:26:40.434Z,2.40
2019-04-01T06:29:09.977Z,2.10
2019-04-01T06:31:39.630Z,2.55
2019-04-01T06:34:09.256Z,2.52
2019-04-01T06:36:39.064Z,1.90
2019-04-01T06:39:08.565Z,2.33
2019-04-01T06:41:38.143Z,2.55
2019-04-01T06:44:08.013Z,2.45
2019-04-01T06:46:37.926Z,2.10
2019-04-01T06:49:07.550Z,1.80
2019-04-01T06:51:37.556Z,2.55
2019-04-01T06:54:07.180Z,2.62
2019-04-01T06:56:36.733Z,2.50
2019-04-01T06:59:06.559Z,2.47
2019-04-01T07:01:36.314Z,2.17
2019-04-01T07:04:05.920Z,2.92
2019-04-01T07:06:35.531Z,2.72
2019-04-01T07:09:06.898Z,3.33
2019-04-01T07:11:36.478Z,3.02
2019-04-01T07:14:06.489Z,2.62
2019-04-01T07:16:36.108Z,3.50
2019-04-01T07:19:05.820Z,2.58
2019-04-01T07:21:35.365Z,3.25
2019-04-01T07:24:05.121Z,3.15
2019-04-01T07:26:34.815Z,4.03
2019-04-01T07:29:04.523Z,3.05
2019-04-01T07:31:34.131Z,2.77
2019-04-01T07:34:03.777Z,3.10
2019-04-01T07:36:33.374Z,3.45
2019-04-01T07:39:03.560Z,3.30
2019-04-01T07:41:33.127Z,4.08
2019-04-01T07:44:04.005Z,3.65
2019-04-01T07:46:33.578Z,3.40
2019-04-01T07:49:03.575Z,3.25
2019-04-01T07:51:33.875Z,3.08
2019-04-01T07:54:03.455Z,2.87
2019-04-01T07:56:33.015Z,3.35
2019-04-01T07:59:02.702Z,3.60
2019-04-01T08:01:32.710Z,2.35
2019-04-01T08:04:02.397Z,2.87
2019-04-01T08:06:32.573Z,4.20
2019-04-01T08:09:02.171Z,2.87
2019-04-01T08:11:31.852Z,2.75
2019-04-01T08:14:01.623Z,3.35
2019-04-01T08:16:31.323Z,2.87
2019-04-01T08:19:01.205Z,2.72
2019-04-01T08:21:30.921Z,3.00
2019-04-01T08:24:00.566Z,3.10
2019-04-01T08:26:30.379Z,2.95
2019-04-01T08:29:00.008Z,2.67
2019-04-01T08:31:29.667Z,3.12
2019-04-01T08:33:59.300Z,2.90
2019-04-01T08:36:28.903Z,2.50
2019-04-01T08:39:00.418Z,3.05
2019-04-01T08:41:29.783Z,4.25
2019-04-01T08:44:03.120Z,2.87
2019-04-01T08:46:31.342Z,2.98
2019-04-01T08:49:02.107Z,3.15
2019-04-01T08:51:31.753Z,3.05
2019-04-01T08:54:01.746Z,3.33
2019-04-01T08:56:31.299Z,2.47
2019-04-01T08:59:01.148Z,2.55
2019-04-01T09:01:35.446Z,3.05
2019-04-01T09:04:02.575Z,2.90
2019-04-01T09:06:32.166Z,2.62
2019-04-01T09:09:03.125Z,2.70
2019-04-01T09:11:33.123Z,3.08
2019-04-01T09:14:02.993Z,3.10
2019-04-01T09:16:33.483Z,2.52
2019-04-01T09:19:03.089Z,2.40
2019-04-01T09:21:32.930Z,3.90
2019-04-01T09:24:02.566Z,3.00
2019-04-01T09:26:32.143Z,3.12
2019-04-01T09:29:01.786Z,2.65
2019-04-01T09:31:31.349Z,3.27
2019-04-01T09:34:01.010Z,2.98
2019-04-01T09:36:30.576Z,3.12
2019-04-01T09:39:00.189Z,3.62
2019-04-01T09:41:29.827Z,3.25
2019-04-01T09:43:59.655Z,2.92
2019-04-01T09:46:29.524Z,3.67
2019-04-01T09:48:59.166Z,2.85
2019-04-01T09:51:28.693Z,3.02
2019-04-01T09:53:58.313Z,3.15
2019-04-01T09:56:27.870Z,3.62
2019-04-01T09:58:57.649Z,3.40
2019-04-01T10:01:27.232Z,3.17
2019-04-01T10:03:57.028Z,3.05
2019-04-01T10:06:26.582Z,3.98
2019-04-01T10:08:56.167Z,3.05
2019-04-01T10:11:25.710Z,2.87
2019-04-01T10:13:55.537Z,2.92
2019-04-01T10:16:26.561Z,2.62
2019-04-01T10:18:56.277Z,3.25
2019-04-01T10:21:25.862Z,3.60
2019-04-01T10:23:55.437Z,5.03
2019-04-01T10:26:24.988Z,2.92
2019-04-01T10:28:54.598Z,3.83
2019-04-01T10:31:24.112Z,3.12
2019-04-01T10:33:53.731Z,3.50
2019-04-01T10:36:23.305Z,3.67
2019-04-01T10:38:53.249Z,3.25
2019-04-01T10:41:23.098Z,3.25
2019-04-01T10:43:53.091Z,2.83
2019-04-01T10:46:22.631Z,3.42
2019-04-01T10:48:52.342Z,3.65
2019-04-01T10:51:21.953Z,4.00
2019-04-01T10:53:51.488Z,3.60
2019-04-01T10:56:21.170Z,3.37
2019-04-01T10:58:50.701Z,3.12
2019-04-01T11:01:20.331Z,3.83
2019-04-01T11:03:49.954Z,4.75
2019-04-01T11:06:19.846Z,4.20
2019-04-01T11:08:49.465Z,3.45
2019-04-01T11:11:19.032Z,3.25
2019-04-01T11:13:51.632Z,3.42
2019-04-01T11:16:19.830Z,4.22
2019-04-01T11:18:49.397Z,3.58
2019-04-01T11:21:18.955Z,3.00
2019-04-01T11:23:48.591Z,4.28
2019-04-01T11:26:18.159Z,3.42
2019-04-01T11:28:47.764Z,4.17
2019-04-01T11:31:17.348Z,3.90
2019-04-01T11:33:47.020Z,3.85
2019-04-01T11:36:16.990Z,3.60
2019-04-01T11:38:46.635Z,3.72
2019-04-01T11:41:16.175Z,4.10
2019-04-01T11:43:45.876Z,3.40
2019-04-01T11:46:15.394Z,4.05
2019-04-01T11:48:45.003Z,4.00
2019-04-01T11:51:14.554Z,3.42
2019-04-01T11:53:44.170Z,3.92
2019-04-01T11:56:13.768Z,3.80
2019-04-01T11:58:43.335Z,3.72
2019-04-01T12:01:12.969Z,4.45
2019-04-01T12:03:42.526Z,3.45
2019-04-01T12:06:12.068Z,3.98
2019-04-01T12:08:41.694Z,4.05
2019-04-01T12:11:11.235Z,3.50
2019-04-01T12:13:41.706Z,4.10
2019-04-01T12:16:11.322Z,3.50
2019-04-01T12:18:41.161Z,3.30
2019-04-01T12:21:10.836Z,3.67
2019-04-01T12:23:40.637Z,4.22
2019-04-01T12:26:15.496Z,4.10
2019-04-01T12:28:42.726Z,3.50
2019-04-01T12:31:13.276Z,3.83
2019-04-01T12:33:43.199Z,4.15
2019-04-01T12:36:13.024Z,3.98
2019-04-01T12:38:42.627Z,4.67
2019-04-01T12:41:12.525Z,3.22
2019-04-01T12:43:42.076Z,3.83
2019-04-01T12:46:11.617Z,3.50
2019-04-01T12:48:41.191Z,3.98
2019-04-01T12:51:10.947Z,4.00
2019-04-01T12:53:40.474Z,3.95
2019-04-01T12:56:10.051Z,3.20
2019-04-01T12:58:39.964Z,3.30
2019-04-01T13:01:09.537Z,4.85
2019-04-01T13:03:39.007Z,3.85
2019-04-01T13:06:08.548Z,4.12
2019-04-01T13:08:38.085Z,3.20
2019-04-01T13:11:07.644Z,2.98
2019-04-01T13:13:37.171Z,3.70
2019-04-01T13:16:09.032Z,3.58
2019-04-01T13:18:38.397Z,4.67
2019-04-01T13:21:07.980Z,3.10
2019-04-01T13:23:37.473Z,4.80
2019-04-01T13:26:07.086Z,3.52
2019-04-01T13:28:36.590Z,3.17
2019-04-01T13:31:07.312Z,3.98
2019-04-01T13:33:36.825Z,3.33
2019-04-01T13:36:08.013Z,3.60
2019-04-01T13:38:37.622Z,4.28
2019-04-01T13:41:07.230Z,4.00
2019-04-01T13:43:36.769Z,4.90
2019-04-01T13:46:06.286Z,3.20
2019-04-01T13:48:35.849Z,4.17
2019-04-01T13:51:05.635Z,4.10
2019-04-01T13:53:35.183Z,3.70
2019-04-01T13:56:04.939Z,3.67
2019-04-01T13:58:34.770Z,3.57
2019-04-01T14:01:04.382Z,4.27
2019-04-01T14:03:33.945Z,2.90
2019-04-01T14:06:03.475Z,4.13
2019-04-01T14:08:32.986Z,4.50
2019-04-01T14:11:05.790Z,3.40
2019-04-01T14:13:33.731Z,3.47
2019-04-01T14:16:03.378Z,3.63
2019-04-01T14:18:32.899Z,4.13
2019-04-01T14:21:15.345Z,3.67
2019-04-01T14:23:34.082Z,3.50
2019-04-01T14:26:03.918Z,3.57
2019-04-01T14:28:33.458Z,3.37
2019-04-01T14:31:03.024Z,3.30
2019-04-01T14:33:33.000Z,3.37
2019-04-01T14:36:06.076Z,4.37
2019-04-01T14:38:35.204Z,4.20
2019-04-01T14:41:04.839Z,3.70
2019-04-01T14:43:34.393Z,3.30
2019-04-01T14:46:05.103Z,3.50
2019-04-01T14:48:35.483Z,3.17
2019-04-01T14:51:05.010Z,3.50
2019-04-01T14:53:34.620Z,3.40
2019-04-01T14:56:04.231Z,2.93
2019-04-01T14:58:33.733Z,3.83
2019-04-01T15:01:03.235Z,3.87
2019-04-01T15:03:32.796Z,3.43
2019-04-01T15:06:02.416Z,3.33
2019-04-01T15:08:31.951Z,3.10
2019-04-01T15:11:01.499Z,3.70
2019-04-01T15:13:31.011Z,4.43
2019-04-01T15:16:01.098Z,4.23
2019-04-01T15:18:34.077Z,3.50
2019-04-01T15:21:01.807Z,3.57
2019-04-01T15:23:31.355Z,4.03
2019-04-01T15:26:01.251Z,3.90
2019-04-01T15:28:31.453Z,3.33
2019-04-01T15:31:01.610Z,3.70
2019-04-01T15:33:31.530Z,3.83
2019-04-01T15:36:04.035Z,3.27
2019-04-01T15:38:32.262Z,3.43
2019-04-01T15:41:01.845Z,2.90
2019-04-01T15:43:31.435Z,3.80
2019-04-01T15:46:04.070Z,3.73
2019-04-01T15:48:34.811Z,4.47
2019-04-01T15:51:04.847Z,3.93
2019-04-01T15:53:35.179Z,4.40
2019-04-01T15:56:05.373Z,3.97
2019-04-01T15:58:34.882Z,4.40
2019-04-01T16:01:04.755Z,4.63
2019-04-01T16:03:34.276Z,4.43
2019-04-01T16:06:07.361Z,4.50
2019-04-01T16:08:35.233Z,4.77
2019-04-01T16:11:04.856Z,4.90
2019-04-01T16:13:34.820Z,4.10
2019-04-01T16:16:04.612Z,4.87
2019-04-01T16:18:34.191Z,4.50
2019-04-01T16:21:03.791Z,7.73
2019-04-01T16:23:33.308Z,4.63
2019-04-01T16:26:02.840Z,5.40
2019-04-01T16:28:32.869Z,4.20
2019-04-01T16:31:02.429Z,5.23
2019-04-01T16:33:31.958Z,4.77
2019-04-01T16:36:01.768Z,4.80
2019-04-01T16:38:31.524Z,4.90
2019-04-01T16:41:01.062Z,5.37
2019-04-01T16:43:30.728Z,7.10
2019-04-01T16:46:00.243Z,6.13
2019-04-01T16:48:29.813Z,5.00
2019-04-01T16:50:59.322Z,4.97
2019-04-01T16:53:28.820Z,5.37
2019-04-01T16:55:58.696Z,5.93
2019-04-01T16:58:28.463Z,5.57
2019-04-01T17:00:58.060Z,4.57
2019-04-01T17:03:27.956Z,5.73
2019-04-01T17:05:57.635Z,4.87
2019-04-01T17:08:29.619Z,4.67
2019-04-01T17:10:58.719Z,5.90
2019-04-01T17:13:28.313Z,5.40
2019-04-01T17:16:01.286Z,5.43
2019-04-01T17:18:29.582Z,5.10
2019-04-01T17:20:59.354Z,5.50
2019-04-01T17:23:30.588Z,5.30
2019-04-01T17:26:00.299Z,5.80
2019-04-01T17:28:30.102Z,6.13
2019-04-01T17:30:59.628Z,5.63
2019-04-01T17:33:29.253Z,5.10
2019-04-01T17:35:58.991Z,6.67
2019-04-01T17:38:28.831Z,6.00
2019-04-01T17:40:58.382Z,6.80
2019-04-01T17:43:27.983Z,6.53
2019-04-01T17:45:57.685Z,10.27
2019-04-01T17:48:27.316Z,9.27
2019-04-01T17:50:57.967Z,7.90
2019-04-01T17:53:27.761Z,6.28
2019-04-01T17:55:57.278Z,6.17
2019-04-01T17:58:26.852Z,5.12
2019-04-01T18:00:58.330Z,5.15
2019-04-01T18:03:27.932Z,5.87
2019-04-01T18:05:57.524Z,5.08
2019-04-01T18:08:27.161Z,5.28
2019-04-01T18:10:57.400Z,6.87
2019-04-01T18:13:27.299Z,5.00
2019-04-01T18:15:57.453Z,5.05
2019-04-01T18:18:27.717Z,6.20
2019-04-01T18:20:57.615Z,6.12
2019-04-01T18:23:27.438Z,5.97
2019-04-01T18:25:57.032Z,6.03
2019-04-01T18:28:26.545Z,6.47
2019-04-01T18:30:56.047Z,5.30
2019-04-01T18:33:25.988Z,5.90
2019-04-01T18:35:55.734Z,5.90
2019-04-01T18:38:25.539Z,5.08
2019-04-01T18:40:55.038Z,5.70
2019-04-01T18:43:24.663Z,6.20
2019-04-01T18:45:54.196Z,5.58
2019-04-01T18:48:23.832Z,5.17
2019-04-01T18:50:53.360Z,4.33
2019-04-01T18:53:22.926Z,5.00
2019-04-01T18:55:53.016Z,4.85
2019-04-01T18:58:22.817Z,5.10
2019-04-01T19:00:52.368Z,4.97
2019-04-01T19:03:24.037Z,5.15
2019-04-01T19:05:53.298Z,5.12
2019-04-01T19:08:22.819Z,4.67
2019-04-01T19:11:02.163Z,5.80
2019-04-01T19:13:23.516Z,6.42
2019-04-01T19:15:53.587Z,6.35
2019-04-01T19:18:24.171Z,5.05
2019-04-01T19:20:56.819Z,6.15
2019-04-01T19:23:25.130Z,5.08
2019-04-01T19:25:55.213Z,5.62
2019-04-01T19:28:27.126Z,6.15
2019-04-01T19:30:56.820Z,5.47
2019-04-01T19:33:26.626Z,6.10
2019-04-01T19:35:56.209Z,5.22
2019-04-01T19:38:26.196Z,6.33
2019-04-01T19:40:55.715Z,5.60
2019-04-01T19:43:25.249Z,5.58
2019-04-01T19:45:54.813Z,5.45
2019-04-01T19:48:24.357Z,6.12
2019-04-01T19:50:53.893Z,5.70
2019-04-01T19:53:24.568Z,5.30
2019-04-01T19:55:54.258Z,6.42
2019-04-01T19:58:25.318Z,7.22
2019-04-01T20:00:55.068Z,7.17
2019-04-01T20:03:25.615Z,6.22
2019-04-01T20:05:55.543Z,6.08
2019-04-01T20:08:25.022Z,5.35
2019-04-01T20:10:54.561Z,6.03
2019-04-01T20:13:24.346Z,5.20
2019-04-01T20:15:53.858Z,6.37
2019-04-01T20:18:23.423Z,5.95
2019-04-01T20:20:52.935Z,5.67
2019-04-01T20:23:23.161Z,5.83
2019-04-01T20:25:52.950Z,6.05
2019-04-01T20:28:22.722Z,5.65
2019-04-01T20:30:52.251Z,6.40
2019-04-01T20:33:21.771Z,5.67
2019-04-01T20:35:51.585Z,5.72
2019-04-01T20:38:21.192Z,6.15
2019-04-01T20:40:50.755Z,6.03
2019-04-01T20:43:20.269Z,6.10
2019-04-01T20:45:49.773Z,6.45
2019-04-01T20:48:19.848Z,6.10
2019-04-01T20:50:49.426Z,5.97
2019-04-01T20:53:19.174Z,5.85
2019-04-01T20:55:50.657Z,6.33
2019-04-01T20:58:20.314Z,5.78
2019-04-01T21:00:49.907Z,6.75
2019-04-01T21:03:19.428Z,6.00
2019-04-01T21:05:48.956Z,5.90
2019-04-01T21:08:18.747Z,5.83
2019-04-01T21:10:48.277Z,5.12
2019-04-01T21:13:17.802Z,5.83
2019-04-01T21:15:47.345Z,6.37
2019-04-01T21:18:17.118Z,6.15
2019-04-01T21:20:46.665Z,5.72
2019-04-01T21:23:16.216Z,6.22
2019-04-01T21:25:46.492Z,6.75
2019-04-01T21:28:16.333Z,6.12
2019-04-01T21:30:46.078Z,6.08
2019-04-01T21:33:15.649Z,5.97
2019-04-01T21:35:45.185Z,6.05
2019-04-01T21:38:14.718Z,7.10
2019-04-01T21:40:44.283Z,6.60
2019-04-01T21:43:13.795Z,6.05
2019-04-01T21:45:44.907Z,5.95
2019-04-01T21:48:14.560Z,6.75
2019-04-01T21:50:44.208Z,6.45
2019-04-01T21:53:14.194Z,6.42
2019-04-01T21:55:43.753Z,5.33
2019-04-01T21:58:13.479Z,5.85
2019-04-01T22:00:54.526Z,5.50
2019-04-01T22:03:23.999Z,6.12
2019-04-01T22:05:53.569Z,6.22
2019-04-01T22:08:23.073Z,6.10
2019-04-01T22:10:52.564Z,6.00
2019-04-01T22:13:22.037Z,6.15
2019-04-01T22:15:51.539Z,5.50
2019-04-01T22:18:21.275Z,6.83
2019-04-01T22:20:50.807Z,5.62
2019-04-01T22:23:20.538Z,5.90
2019-04-01T22:25:50.096Z,5.08
2019-04-01T22:28:19.830Z,5.20
2019-04-01T22:30:49.350Z,6.20
2019-04-01T22:33:18.894Z,5.75
2019-04-01T22:35:48.382Z,5.80
2019-04-01T22:38:25.083Z,5.55
2019-04-01T22:40:49.091Z,5.97
2019-04-01T22:43:18.606Z,5.33
2019-04-01T22:45:49.127Z,5.90
2019-04-01T22:48:18.735Z,6.17
2019-04-01T22:50:48.228Z,5.70
2019-04-01T22:53:17.682Z,6.00
2019-04-01T22:55:47.176Z,6.35
2019-04-01T22:58:17.163Z,5.92
2019-04-01T23:00:47.185Z,6.80
2019-04-01T23:03:17.449Z,5.47
2019-04-01T23:05:46.969Z,6.12
2019-04-01T23:08:16.496Z,5.33
2019-04-01T23:10:46.530Z,5.45
2019-04-01T23:13:16.033Z,6.67
2019-04-01T23:15:45.560Z,7.10
2019-04-01T23:18:15.058Z,6.30
2019-04-01T23:20:44.548Z,5.15
2019-04-01T23:23:14.411Z,6.05
2019-04-01T23:25:43.895Z,5.50
2019-04-01T23:28:13.642Z,7.03
2019-04-01T23:30:43.105Z,6.60
2019-04-01T23:33:12.610Z,5.53
2019-04-01T23:35:43.319Z,5.33
2019-04-01T23:38:13.365Z,5.92
2019-04-01T23:40:43.214Z,7.65
2019-04-01T23:43:12.683Z,5.92
2019-04-01T23:45:42.183Z,6.10
2019-04-01T23:48:11.674Z,6.42
2019-04-01T23:50:41.419Z,5.58
2019-04-01T23:53:10.891Z,5.97
2019-04-01T23:55:40.502Z,6.00
2019-04-01T23:58:09.993Z,6.60
